Fruitland Park, Florida
Current Conditions -  °F | °C
As of 11:53 PM on Friday 24 Oct 2014 (Local Time) from KLEE Reporting Station
Clear Clear  
Wind Chill: 64°   Ceiling: Unl
Heat Index: 64°   Visibility: 10mi
Dew Point: 57°   Wind: 7mph
Humidity: 78%   Direction: 30°NNE
Pressure: 30"   Gusts: NA
Location:  28.86°N, 81.91°W
Report Text: KLEE 250353Z AUTO 03006KT 10SM CLR 18/14 A3000 RMK AO2 SLP159 T01780139
Loading
Personal Weather Stations






























Interactive Weather Map
Tropical Storm Tracking
New forecast layout! Learn more

10-Day Weather Forecast

Advertisements
Track Severe Weather on mobile